Time;durP1;ratioP1;P1;durP2;ratioP2;P2;SDS_P1;SDS_P2;PMS_P1;PMS_P2;Temp;Humidity;BMP_temperature;BMP_pressure;BME280_temperature;BME280_humidity;BME280_pressure;Samples;Min_cycle;Max_cycle;Signal;HPM_P1;HPM_P2
2021/11/22 00:01:11;;;;;;;0.00;0.00;;;;;;;6.45;76.66;98772.69;5091330;28;20486;-71
2021/11/22 00:03:38;;;;;;;0.00;0.00;;;;;;;6.41;76.78;98764.44;5090698;28;20464;-71
2021/11/22 00:06:03;;;;;;;0.00;0.00;;;;;;;6.38;76.96;98780.91;5091136;28;20036;-71
2021/11/22 00:08:29;;;;;;;0.25;0.25;;;;;;;6.40;76.55;98777.97;5090478;28;20101;-71
2021/11/22 00:10:55;;;;;;;0.00;0.00;;;;;;;6.36;76.26;98780.34;5090771;28;20024;-72
2021/11/22 00:13:20;;;;;;;0.30;0.30;;;;;;;6.34;76.06;98771.81;5090410;28;20036;-71
2021/11/22 00:15:46;;;;;;;0.65;0.65;;;;;;;6.28;75.93;98766.75;5090930;28;20024;-71
2021/11/22 00:18:12;;;;;;;0.00;0.00;;;;;;;6.27;75.97;98775.75;5090910;28;20059;-70
2021/11/22 00:20:37;;;;;;;0.00;0.00;;;;;;;6.18;76.24;98768.25;5090542;28;20108;-73
2021/11/22 00:23:03;;;;;;;0.00;0.00;;;;;;;6.27;76.00;98789.03;5073037;28;20078;-72
2021/11/22 00:25:29;;;;;;;0.00;0.00;;;;;;;6.25;76.38;98784.78;5090647;28;20016;-73
2021/11/22 00:27:54;;;;;;;0.08;0.08;;;;;;;6.22;75.66;98781.81;5091020;28;20479;-73
2021/11/22 00:30:20;;;;;;;0.00;0.00;;;;;;;6.18;76.49;98778.09;5090789;28;20028;-72
2021/11/22 00:32:46;;;;;;;0.00;0.00;;;;;;;6.19;77.11;98779.66;5091076;28;20403;-73
2021/11/22 00:35:14;;;;;;;0.00;0.00;;;;;;;6.08;77.84;98760.22;5090722;28;20020;-73
2021/11/22 00:37:41;;;;;;;0.00;0.00;;;;;;;6.09;78.18;98761.78;5090740;28;20043;-71
2021/11/22 00:40:12;;;;;;;0.00;0.00;;;;;;;6.09;77.93;98765.25;5090611;28;20032;-72
2021/11/22 00:42:39;;;;;;;0.00;0.00;;;;;;;6.17;77.72;98771.97;5089871;28;20059;-73
2021/11/22 00:45:06;;;;;;;0.45;0.45;;;;;;;6.16;78.26;98773.00;5072436;28;20024;-72
2021/11/22 00:47:33;;;;;;;0.00;0.00;;;;;;;6.08;77.75;98757.56;5090646;28;20036;-72
2021/11/22 00:49:58;;;;;;;0.00;0.00;;;;;;;6.09;77.86;98765.25;5090670;28;20430;-71
2021/11/22 00:52:23;;;;;;;0.00;0.00;;;;;;;6.12;77.29;98771.91;5090630;28;20024;-71
2021/11/22 00:54:49;;;;;;;0.20;0.20;;;;;;;6.11;77.27;98772.19;5072725;28;20407;-73
2021/11/22 00:57:14;;;;;;;0.00;0.00;;;;;;;6.03;77.59;98763.63;5090343;28;20028;-72
2021/11/22 00:59:40;;;;;;;0.00;0.00;;;;;;;5.96;76.76;98760.34;5090592;28;20067;-75
2021/11/22 01:02:05;;;;;;;0.00;0.00;;;;;;;5.91;76.63;98758.44;5090828;28;20445;-74
2021/11/22 01:04:31;;;;;;;0.00;0.00;;;;;;;5.92;76.61;98767.22;5090564;28;20047;-75
2021/11/22 01:06:56;;;;;;;0.00;0.00;;;;;;;5.93;76.47;98780.22;5091007;28;20072;-75
2021/11/22 01:09:22;;;;;;;0.00;0.00;;;;;;;5.84;76.62;98762.38;5072634;28;20023;-71
2021/11/22 01:11:48;;;;;;;0.10;0.10;;;;;;;5.89;76.89;98776.47;5090117;28;20410;-73
2021/11/22 01:14:14;;;;;;;0.08;0.08;;;;;;;5.85;76.55;98775.38;5090703;28;20486;-69
2021/11/22 01:16:40;;;;;;;0.00;0.00;;;;;;;5.82;76.87;98780.38;5090459;28;20248;-73
2021/11/22 01:19:06;;;;;;;0.00;0.00;;;;;;;5.74;76.90;98768.38;5091749;28;20020;-70
2021/11/22 01:21:32;;;;;;;0.00;0.00;;;;;;;5.68;76.43;98772.03;5094219;28;20028;-70
2021/11/22 01:23:58;;;;;;;0.00;0.00;;;;;;;5.55;76.56;98760.75;5094408;28;20016;-71
2021/11/22 01:26:24;;;;;;;0.00;0.00;;;;;;;5.62;77.05;98776.47;5093329;28;20505;-70
2021/11/22 01:28:49;;;;;;;0.00;0.00;;;;;;;5.59;77.00;98783.09;5094060;28;20032;-70
2021/11/22 01:31:15;;;;;;;0.00;0.00;;;;;;;5.55;76.79;98781.97;5093799;28;20483;-69
2021/11/22 01:33:41;;;;;;;0.00;0.00;;;;;;;5.50;76.64;98775.81;5093999;28;20020;-70
2021/11/22 01:36:06;;;;;;;0.00;0.00;;;;;;;5.44;76.39;98772.31;5093775;28;20074;-71
2021/11/22 01:38:32;;;;;;;0.00;0.00;;;;;;;5.43;76.85;98782.13;5093329;28;20036;-71
2021/11/22 01:40:58;;;;;;;0.00;0.00;;;;;;;5.40;76.39;98773.84;5093900;28;20539;-69
2021/11/22 01:43:23;;;;;;;0.00;0.00;;;;;;;5.34;76.44;98774.84;5075769;28;20490;-70
2021/11/22 01:45:51;;;;;;;0.00;0.00;;;;;;;5.29;77.04;98773.72;5093087;28;20035;-69
2021/11/22 01:48:19;;;;;;;0.00;0.00;;;;;;;5.18;76.81;98760.63;5094004;28;20534;-70
2021/11/22 01:50:47;;;;;;;0.30;0.30;;;;;;;5.24;76.78;98773.69;5093941;28;20102;-70
2021/11/22 01:53:15;;;;;;;0.00;0.00;;;;;;;5.22;77.42;98773.13;5093957;28;20027;-72
2021/11/22 01:55:42;;;;;;;0.20;0.20;;;;;;;5.17;77.75;98767.75;5075060;28;20040;-71
2021/11/22 01:58:07;;;;;;;0.00;0.00;;;;;;;5.17;77.64;98773.06;5075392;28;20444;-73
2021/11/22 02:00:35;;;;;;;0.00;0.00;;;;;;;5.10;77.23;98764.50;5093496;28;20036;-74
2021/11/22 02:03:01;;;;;;;0.00;0.00;;;;;;;5.19;77.84;98784.22;5074886;28;20073;-72
2021/11/22 02:05:27;;;;;;;0.00;0.00;;;;;;;5.09;77.56;98771.66;5092752;28;20044;-73
2021/11/22 02:07:53;;;;;;;0.00;0.00;;;;;;;5.18;77.74;98779.19;5091855;28;20020;-73
2021/11/22 02:10:19;;;;;;;0.00;0.00;;;;;;;5.17;77.22;98783.66;5089419;28;20035;-72
2021/11/22 02:12:46;;;;;;;0.00;0.00;;;;;;;5.13;77.77;98764.78;5093125;28;20051;-72
2021/11/22 02:15:13;;;;;;;0.10;0.10;;;;;;;5.18;77.42;98777.31;5093072;28;20032;-72
2021/11/22 02:17:41;;;;;;;0.00;0.00;;;;;;;5.17;77.33;98778.34;5092922;28;20054;-72
2021/11/22 02:20:10;;;;;;;0.00;0.00;;;;;;;5.13;76.74;98774.59;5093563;28;20032;-73
2021/11/22 02:22:36;;;;;;;0.00;0.00;;;;;;;5.04;77.05;98753.03;5093077;28;20107;-73
2021/11/22 02:25:07;;;;;;;0.00;0.00;;;;;;;4.97;76.74;98755.06;5092880;28;20107;-72
2021/11/22 02:27:33;;;;;;;0.00;0.00;;;;;;;5.06;76.85;98769.47;5092526;28;20031;-73
2021/11/22 02:29:59;;;;;;;0.00;0.00;;;;;;;5.00;76.67;98756.44;5092897;28;20031;-74
2021/11/22 02:32:24;;;;;;;0.00;0.00;;;;;;;4.90;76.42;98741.19;5074573;28;20362;-72
2021/11/22 02:34:50;;;;;;;0.00;0.00;;;;;;;4.99;76.31;98765.41;5092502;28;20401;-74
2021/11/22 02:37:15;;;;;;;0.00;0.00;;;;;;;4.89;76.91;98755.50;5074750;28;20032;-74
2021/11/22 02:39:41;;;;;;;0.00;0.00;;;;;;;4.90;76.91;98755.25;5074542;28;20027;-70
2021/11/22 02:42:23;;;;;;;0.00;0.00;;;;;;;4.84;77.74;98744.84;5092650;28;20099;-69
2021/11/22 02:44:49;;;;;;;0.00;0.00;;;;;;;4.74;77.49;98724.31;5092144;28;20050;-69
2021/11/22 02:47:14;;;;;;;0.00;0.00;;;;;;;4.91;77.77;98758.72;5074393;28;20032;-69
2021/11/22 02:49:39;;;;;;;1.35;1.13;;;;;;;4.74;77.23;98733.03;5074220;28;20055;-69
2021/11/22 02:52:06;;;;;;;0.00;0.00;;;;;;;4.87;77.24;98761.03;5092372;28;20024;-71
2021/11/22 02:54:31;;;;;;;0.00;0.00;;;;;;;4.79;77.74;98754.31;5092166;28;20111;-71
2021/11/22 02:56:57;;;;;;;0.17;0.17;;;;;;;4.76;77.57;98759.28;5092614;28;20446;-70
2021/11/22 02:59:22;;;;;;;0.00;0.00;;;;;;;4.73;77.72;98755.28;5092061;28;20085;-72
2021/11/22 03:01:48;;;;;;;0.00;0.00;;;;;;;4.74;77.80;98766.69;5073903;28;20431;-69
2021/11/22 03:04:13;;;;;;;0.00;0.00;;;;;;;4.77;77.86;98777.59;5092268;28;20074;-70
2021/11/22 03:06:39;;;;;;;0.00;0.00;;;;;;;4.56;77.80;98736.78;5074012;28;20020;-68
2021/11/22 03:09:05;;;;;;;0.00;0.00;;;;;;;4.76;77.48;98786.59;5091782;28;20039;-68
2021/11/22 03:11:30;;;;;;;0.00;0.00;;;;;;;4.76;77.80;98788.44;5091827;28;20638;-70
2021/11/22 03:13:56;;;;;;;0.00;0.00;;;;;;;4.47;77.65;98744.34;5092286;28;20028;-70
2021/11/22 03:16:22;;;;;;;0.00;0.00;;;;;;;4.70;77.33;98778.81;5073816;28;20092;-70
2021/11/22 03:18:47;;;;;;;0.00;0.00;;;;;;;4.67;77.56;98784.59;5091656;28;20024;-70
2021/11/22 03:21:13;;;;;;;0.00;0.00;;;;;;;4.65;77.25;98782.19;5092189;28;20042;-70
2021/11/22 03:23:41;;;;;;;0.00;0.00;;;;;;;4.60;77.38;98774.16;5091915;28;20024;-72
2021/11/22 03:26:06;;;;;;;0.00;0.00;;;;;;;4.60;77.51;98782.94;5073826;28;20020;-69
2021/11/22 03:28:32;;;;;;;0.00;0.00;;;;;;;4.59;77.59;98791.09;5091153;28;20035;-70
2021/11/22 03:30:58;;;;;;;0.10;0.10;;;;;;;4.56;77.54;98787.09;5091499;28;20036;-69
2021/11/22 03:33:23;;;;;;;0.00;0.00;;;;;;;4.56;78.25;98788.94;5091849;28;20024;-69
2021/11/22 03:35:52;;;;;;;0.00;0.00;;;;;;;4.58;77.65;98792.97;5091374;28;20067;-68
2021/11/22 03:38:18;;;;;;;0.00;0.00;;;;;;;4.62;77.76;98793.28;5091803;28;20111;-68
2021/11/22 03:40:45;;;;;;;0.00;0.00;;;;;;;4.53;77.94;98778.81;5091229;28;20099;-68
2021/11/22 03:45:39;;;;;;;0.00;0.00;;;;;;;4.63;77.94;98787.72;5090859;28;20032;-70
2021/11/22 03:48:05;;;;;;;0.00;0.00;;;;;;;4.67;77.83;98795.19;5091678;28;20078;-69
2021/11/22 03:50:31;;;;;;;0.00;0.00;;;;;;;4.58;77.95;98771.78;5091259;28;20035;-69
2021/11/22 03:52:57;;;;;;;0.00;0.00;;;;;;;4.62;78.74;98783.47;5091643;28;20024;-70
2021/11/22 03:55:22;;;;;;;0.00;0.00;;;;;;;4.63;78.79;98782.44;5091293;28;20500;-74
2021/11/22 03:57:48;;;;;;;0.00;0.00;;;;;;;4.66;78.69;98789.09;5091068;28;20024;-71
2021/11/22 04:00:15;;;;;;;0.00;0.00;;;;;;;4.67;79.25;98792.56;5091436;28;20402;-73
2021/11/22 04:02:41;;;;;;;0.00;0.00;;;;;;;4.54;79.83;98789.19;5091168;28;20107;-72
2021/11/22 04:05:07;;;;;;;0.03;0.03;;;;;;;4.65;79.83;98803.38;5090649;28;20032;-72
2021/11/22 04:07:34;;;;;;;0.00;0.00;;;;;;;4.68;79.75;98796.81;5090077;28;20024;-70
2021/11/22 04:09:59;;;;;;;0.10;0.10;;;;;;;4.64;79.99;98796.50;5072709;28;20110;-71
2021/11/22 04:12:25;;;;;;;0.00;0.00;;;;;;;4.62;79.70;98799.34;5091405;28;20020;-70
2021/11/22 04:14:50;;;;;;;0.00;0.00;;;;;;;4.60;79.99;98798.00;5091327;28;20028;-71
2021/11/22 04:17:16;;;;;;;0.00;0.00;;;;;;;4.61;79.96;98808.38;5090978;28;20032;-71
2021/11/22 04:19:42;;;;;;;0.00;0.00;;;;;;;4.54;79.95;98794.50;5090370;28;20501;-71
2021/11/22 04:22:07;;;;;;;0.15;0.15;;;;;;;4.63;79.85;98805.47;5090297;28;20030;-70
2021/11/22 04:24:33;;;;;;;0.00;0.00;;;;;;;4.61;80.35;98808.38;5090591;28;20031;-70
2021/11/22 04:26:59;;;;;;;0.00;0.00;;;;;;;4.58;80.52;98795.59;5090887;28;20465;-71
2021/11/22 04:29:24;;;;;;;0.00;0.00;;;;;;;4.56;80.40;98802.19;5090439;28;20031;-69
2021/11/22 04:31:50;;;;;;;0.00;0.00;;;;;;;4.67;81.04;98817.19;5091096;28;20030;-70
2021/11/22 04:34:16;;;;;;;0.00;0.00;;;;;;;4.64;80.96;98820.34;5090765;28;20028;-70
2021/11/22 04:36:41;;;;;;;0.00;0.00;;;;;;;4.65;80.71;98816.63;5090354;28;20048;-70
2021/11/22 04:39:07;;;;;;;0.10;0.10;;;;;;;4.67;81.04;98813.75;5072092;28;20032;-71
2021/11/22 04:41:32;;;;;;;0.50;0.20;;;;;;;4.59;80.75;98804.34;5090794;28;20058;-70
2021/11/22 04:44:02;;;;;;;0.00;0.00;;;;;;;4.55;80.64;98793.44;5090706;28;20036;-70
2021/11/22 04:46:27;;;;;;;0.00;0.00;;;;;;;4.57;80.43;98804.59;5090349;28;20031;-69
2021/11/22 04:48:53;;;;;;;0.00;0.00;;;;;;;4.67;80.59;98819.03;5090446;28;20036;-69
2021/11/22 04:51:18;;;;;;;0.00;0.00;;;;;;;4.66;80.69;98818.22;5090662;28;20545;-69
2021/11/22 04:53:44;;;;;;;0.00;0.00;;;;;;;4.59;80.71;98807.00;5090419;28;20059;-69
2021/11/22 04:56:09;;;;;;;0.00;0.00;;;;;;;4.65;80.25;98822.72;5094893;28;20043;-69
2021/11/22 04:58:35;;;;;;;0.00;0.00;;;;;;;4.63;79.95;98819.50;5076515;28;20046;-69
2021/11/22 05:01:01;;;;;;;0.00;0.00;;;;;;;4.56;79.91;98813.56;5076097;28;20028;-69
2021/11/22 05:03:27;;;;;;;0.00;0.00;;;;;;;4.55;79.63;98811.19;5094608;28;20048;-70
2021/11/22 05:05:52;;;;;;;0.00;0.00;;;;;;;4.55;79.88;98811.97;5075991;28;20028;-69
2021/11/22 05:08:18;;;;;;;0.00;0.00;;;;;;;4.55;79.29;98817.25;5094678;28;20027;-69
2021/11/22 05:10:44;;;;;;;0.00;0.00;;;;;;;4.51;79.18;98807.41;5094409;28;20055;-73
2021/11/22 05:13:13;;;;;;;0.00;0.00;;;;;;;4.54;79.14;98822.81;5094667;28;20490;-69
2021/11/22 05:15:39;;;;;;;0.00;0.00;;;;;;;4.56;79.88;98826.03;5093721;28;20032;-68
2021/11/22 05:18:07;;;;;;;0.00;0.00;;;;;;;4.49;80.03;98820.88;5093552;28;20028;-69
2021/11/22 05:20:33;;;;;;;0.00;0.00;;;;;;;4.55;80.39;98829.72;5094131;28;20028;-69
2021/11/22 05:22:59;;;;;;;0.00;0.00;;;;;;;4.53;79.93;98829.97;5094181;28;20403;-71
2021/11/22 05:25:24;;;;;;;0.00;0.00;;;;;;;4.52;80.22;98835.47;5076109;28;20509;-71
2021/11/22 05:27:50;;;;;;;0.00;0.00;;;;;;;4.46;80.29;98819.53;5075590;28;20028;-71
2021/11/22 05:30:18;;;;;;;0.90;0.90;;;;;;;4.53;80.69;98834.44;5091030;28;20031;-73
2021/11/22 05:32:44;;;;;;;0.00;0.00;;;;;;;4.59;80.76;98834.28;5082530;28;20016;-73
2021/11/22 05:35:09;;;;;;;0.00;0.00;;;;;;;4.55;81.21;98821.78;5073983;28;20372;-72
2021/11/22 05:37:36;;;;;;;0.00;0.00;;;;;;;4.56;81.34;98823.38;5055595;28;20032;-73
2021/11/22 05:40:03;;;;;;;0.00;0.00;;;;;;;4.62;81.39;98825.84;5073444;28;20070;-73
2021/11/22 05:42:29;;;;;;;0.00;0.00;;;;;;;4.78;81.38;98847.28;5073755;28;20505;-73
2021/11/22 05:44:54;;;;;;;0.00;0.00;;;;;;;4.88;81.72;98846.63;5055275;28;20140;-73
2021/11/22 05:47:22;;;;;;;0.00;0.00;;;;;;;4.88;81.62;98838.69;5073434;28;20032;-74
2021/11/22 05:49:47;;;;;;;0.00;0.00;;;;;;;4.97;81.47;98835.38;5073009;28;20024;-74
2021/11/22 05:52:13;;;;;;;0.00;0.00;;;;;;;5.13;81.41;98854.94;5073101;28;20032;-74
2021/11/22 05:54:52;;;;;;;0.00;0.00;;;;;;;5.18;81.09;98854.19;5073294;28;20472;-74
2021/11/22 05:57:18;;;;;;;0.00;0.00;;;;;;;5.24;81.34;98845.25;5073246;28;20385;-74
2021/11/22 05:59:45;;;;;;;0.00;0.00;;;;;;;5.41;80.43;98852.38;5073219;28;20025;-74
2021/11/22 06:02:10;;;;;;;0.00;0.00;;;;;;;5.48;80.33;98849.53;5055429;28;20597;-74
2021/11/22 06:04:36;;;;;;;0.00;0.00;;;;;;;5.55;79.85;98847.50;5073168;28;20200;-74
2021/11/22 06:07:01;;;;;;;0.00;0.00;;;;;;;5.61;79.25;98849.97;5054391;28;20031;-73
2021/11/22 06:09:27;;;;;;;0.10;0.10;;;;;;;5.60;79.40;98836.94;5073281;28;20028;-73
2021/11/22 06:11:52;;;;;;;0.00;0.00;;;;;;;5.71;79.15;98835.19;5054995;28;20064;-74
2021/11/22 06:14:18;;;;;;;0.00;0.00;;;;;;;5.76;79.13;98832.59;5073531;28;20024;-73
2021/11/22 06:16:43;;;;;;;0.10;0.10;;;;;;;5.91;78.74;98850.56;5072900;28;20033;-73
2021/11/22 06:19:09;;;;;;;0.25;0.25;;;;;;;6.00;78.06;98867.66;5072827;28;20468;-74
2021/11/22 06:21:34;;;;;;;0.70;0.70;;;;;;;6.00;78.15;98867.66;5073111;28;20465;-74
2021/11/22 06:24:03;;;;;;;3.10;0.77;;;;;;;6.02;78.71;98859.44;5054830;28;20476;-74
2021/11/22 06:26:29;;;;;;;0.20;0.20;;;;;;;6.15;79.40;98880.28;5072866;28;20028;-74
2021/11/22 06:28:55;;;;;;;0.00;0.00;;;;;;;6.19;78.75;98873.41;5054692;28;20033;-74
2021/11/22 06:31:20;;;;;;;0.00;0.00;;;;;;;6.30;79.01;98884.13;5054842;28;20028;-74
2021/11/22 06:33:46;;;;;;;0.00;0.00;;;;;;;6.34;78.97;98877.28;5072908;28;20025;-74
2021/11/22 06:36:11;;;;;;;0.10;0.10;;;;;;;6.41;79.38;98869.91;5072404;28;20033;-74
2021/11/22 06:38:37;;;;;;;0.43;0.43;;;;;;;6.63;79.47;98884.94;5072693;28;20017;-74
2021/11/22 06:41:02;;;;;;;0.00;0.00;;;;;;;6.63;79.17;98872.47;5054482;28;20483;-74
2021/11/22 06:43:28;;;;;;;0.30;0.30;;;;;;;6.80;79.21;98888.28;5054706;28;20039;-74
2021/11/22 06:45:53;;;;;;;0.80;0.73;;;;;;;6.87;79.59;98875.56;5053970;28;20028;-74
2021/11/22 06:48:19;;;;;;;0.00;0.00;;;;;;;7.12;79.16;98889.28;5072821;28;20020;-73
2021/11/22 06:50:45;;;;;;;1.95;1.85;;;;;;;7.24;78.13;98881.09;5072224;28;20037;-75
2021/11/22 06:53:10;;;;;;;0.47;0.47;;;;;;;7.38;76.97;98892.88;5054460;28;20058;-74
2021/11/22 06:55:36;;;;;;;0.30;0.30;;;;;;;7.48;74.48;98884.97;5072137;28;20025;-73
2021/11/22 06:58:01;;;;;;;0.38;0.38;;;;;;;7.58;73.59;98904.69;5072107;28;20025;-74
2021/11/22 07:00:27;;;;;;;0.30;0.30;;;;;;;7.57;72.08;98884.44;5072366;28;20113;-74
2021/11/22 07:02:54;;;;;;;0.00;0.00;;;;;;;7.70;71.11;98894.59;5072107;28;20017;-74
2021/11/22 07:05:21;;;;;;;0.98;0.98;;;;;;;7.71;71.50;98888.22;5072171;28;20491;-74
2021/11/22 07:07:47;;;;;;;0.10;0.10;;;;;;;7.82;71.07;98911.19;5053874;28;20028;-74
2021/11/22 07:10:14;;;;;;;0.20;0.20;;;;;;;7.91;71.64;98908.00;5054137;28;20036;-74
2021/11/22 07:12:40;;;;;;;0.00;0.00;;;;;;;7.91;72.33;98892.84;5072053;28;20024;-74
2021/11/22 07:15:07;;;;;;;0.40;0.40;;;;;;;8.13;72.44;98916.59;5054107;28;20028;-74
2021/11/22 07:17:34;;;;;;;0.10;0.10;;;;;;;8.18;71.91;98905.16;5071523;28;20025;-75
2021/11/22 07:19:59;;;;;;;0.00;0.00;;;;;;;8.33;72.25;98915.03;5071386;28;20049;-74
2021/11/22 07:22:25;;;;;;;0.20;0.20;;;;;;;8.44;71.70;98897.97;5071818;28;20506;-74
2021/11/22 07:24:51;;;;;;;0.10;0.10;;;;;;;8.54;70.23;98899.09;5053601;28;20032;-73
2021/11/22 07:27:18;;;;;;;0.90;0.90;;;;;;;8.67;70.12;98911.91;5072151;28;20029;-73
2021/11/22 07:29:45;;;;;;;0.10;0.10;;;;;;;8.76;69.57;98904.97;5071050;28;20032;-73
2021/11/22 07:32:11;;;;;;;0.20;0.20;;;;;;;8.87;69.03;98896.97;5071665;28;20510;-73
2021/11/22 07:34:38;;;;;;;0.00;0.00;;;;;;;9.00;69.19;98899.06;5071629;28;20028;-73
2021/11/22 07:37:04;;;;;;;2.97;1.95;;;;;;;8.97;68.54;98880.94;5071457;28;20032;-73
2021/11/22 07:39:29;;;;;;;0.25;0.25;;;;;;;9.10;68.35;98893.72;5053524;28;20028;-73
2021/11/22 07:41:56;;;;;;;0.08;0.08;;;;;;;9.23;69.32;98905.72;5053364;28;20064;-73
2021/11/22 07:44:24;;;;;;;0.70;0.68;;;;;;;9.31;69.39;98899.00;5053443;28;20511;-73
2021/11/22 07:46:50;;;;;;;5.00;0.82;;;;;;;9.47;68.43;98898.97;5071148;28;20181;-74
2021/11/22 07:49:15;;;;;;;0.30;0.30;;;;;;;9.50;68.32;98887.78;5071105;28;20534;-73
2021/11/22 07:51:41;;;;;;;0.30;0.30;;;;;;;9.63;68.65;98891.72;5070994;28;20021;-73
2021/11/22 07:54:07;;;;;;;0.75;0.75;;;;;;;9.67;68.74;98882.88;5053088;28;20109;-73
2021/11/22 07:56:32;;;;;;;1.48;0.65;;;;;;;9.84;68.17;98905.75;5071012;28;20174;-73
2021/11/22 07:58:58;;;;;;;0.52;0.52;;;;;;;9.89;68.31;98895.06;5053068;28;20116;-74
2021/11/22 08:01:24;;;;;;;0.65;0.65;;;;;;;9.98;67.85;98890.75;5071226;28;20093;-75
2021/11/22 08:03:50;;;;;;;0.08;0.08;;;;;;;10.07;67.94;98899.78;5070864;28;20063;-73
2021/11/22 08:06:17;;;;;;;0.00;0.00;;;;;;;10.17;67.70;98895.47;5053161;28;20076;-74
2021/11/22 08:08:43;;;;;;;0.93;0.93;;;;;;;10.21;67.13;98896.50;5053031;28;20426;-74
2021/11/22 08:13:41;;;;;;;0.00;0.00;;;;;;;10.33;66.42;98885.47;5071026;28;20036;-75
2021/11/22 08:16:08;;;;;;;0.00;0.00;;;;;;;10.45;66.45;98895.81;5052690;28;20028;-72
2021/11/22 08:18:35;;;;;;;0.43;0.43;;;;;;;10.50;66.53;98893.91;5070608;28;20415;-74
2021/11/22 08:21:02;;;;;;;0.13;0.13;;;;;;;10.61;66.30;98894.66;5070493;28;20027;-74
2021/11/22 08:23:29;;;;;;;1.35;1.25;;;;;;;10.67;66.60;98898.09;5070352;28;20796;-74
2021/11/22 08:25:55;;;;;;;0.17;0.17;;;;;;;10.72;66.03;98892.69;5070567;28;20028;-74
2021/11/22 08:28:21;;;;;;;0.08;0.08;;;;;;;10.72;66.21;98880.09;5069456;28;20029;-74
2021/11/22 08:30:47;;;;;;;0.50;0.50;;;;;;;10.82;66.96;98886.44;5070291;28;20032;-74
2021/11/22 08:33:15;;;;;;;0.30;0.30;;;;;;;10.93;66.59;98897.84;5069995;28;20021;-74
2021/11/22 08:35:42;;;;;;;0.77;0.77;;;;;;;11.05;67.17;98898.28;5053013;28;20472;-74
2021/11/22 08:38:07;;;;;;;1.88;0.77;;;;;;;11.07;67.57;98896.13;5070308;28;20403;-74
2021/11/22 08:40:34;;;;;;;0.70;0.70;;;;;;;11.09;67.35;98891.28;5070825;28;20028;-74
2021/11/22 08:43:00;;;;;;;0.52;0.52;;;;;;;11.18;68.18;98902.16;5052657;28;20029;-73
2021/11/22 08:45:26;;;;;;;0.70;0.70;;;;;;;11.21;68.12;98894.34;5052666;28;20054;-73
2021/11/22 08:47:53;;;;;;;0.32;0.32;;;;;;;11.23;68.83;98893.28;5070759;28;20028;-73
2021/11/22 08:50:21;;;;;;;0.13;0.13;;;;;;;11.32;68.79;98900.41;5052718;28;20064;-73
2021/11/22 08:52:46;;;;;;;0.00;0.00;;;;;;;11.36;68.78;98897.94;5052578;28;20028;-74
2021/11/22 08:55:14;;;;;;;0.30;0.30;;;;;;;11.38;68.12;98904.63;5070756;28;20066;-74
2021/11/22 08:57:39;;;;;;;0.20;0.20;;;;;;;11.31;67.94;98889.97;5052695;28;20029;-74
2021/11/22 09:00:13;;;;;;;0.30;0.30;;;;;;;11.33;66.79;98885.94;5052477;28;20590;-75
2021/11/22 09:02:39;;;;;;;0.40;0.40;;;;;;;11.30;67.35;98875.81;5070626;28;20103;-74
2021/11/22 09:05:05;;;;;;;0.32;0.32;;;;;;;11.36;66.98;98880.03;5051847;28;20044;-74
2021/11/22 09:07:30;;;;;;;0.75;0.75;;;;;;;11.34;67.22;98878.72;5052568;28;20107;-73
2021/11/22 09:09:56;;;;;;;0.00;0.00;;;;;;;11.43;67.67;98879.66;5070653;28;20132;-75
2021/11/22 09:12:21;;;;;;;0.32;0.32;;;;;;;11.44;67.62;98880.47;5052576;28;20020;-74
2021/11/22 09:14:48;;;;;;;2.28;1.20;;;;;;;11.46;67.63;98875.63;5070255;28;20391;-74
2021/11/22 09:17:13;;;;;;;0.20;0.20;;;;;;;11.36;67.82;98847.91;5070404;28;20025;-74
2021/11/22 09:19:39;;;;;;;0.73;0.73;;;;;;;11.63;67.18;98875.16;5070417;28;20498;-74
2021/11/22 09:22:10;;;;;;;1.85;1.75;;;;;;;11.57;67.25;98865.59;5070081;28;20036;-73
2021/11/22 09:24:36;;;;;;;0.17;0.17;;;;;;;11.67;67.57;98873.50;5070388;28;20036;-75
2021/11/22 09:27:01;;;;;;;6.28;1.08;;;;;;;11.69;67.69;98869.47;5052096;28;20024;-74
2021/11/22 09:29:27;;;;;;;0.45;0.45;;;;;;;11.71;67.12;98857.66;5052081;28;20024;-74
2021/11/22 09:31:52;;;;;;;0.10;0.10;;;;;;;11.80;67.37;98864.78;5070397;28;20062;-74
2021/11/22 09:34:18;;;;;;;1.08;1.08;;;;;;;11.87;67.09;98858.25;5070060;28;20043;-74
2021/11/22 09:36:47;;;;;;;0.10;0.10;;;;;;;11.87;66.85;98842.19;5070228;28;20098;-74
2021/11/22 09:39:13;;;;;;;0.10;0.10;;;;;;;11.98;66.82;98857.06;5070041;28;20021;-74
2021/11/22 09:41:39;;;;;;;0.20;0.20;;;;;;;12.04;67.04;98863.16;5072068;28;20021;-74
2021/11/22 09:44:04;;;;;;;1.02;0.95;;;;;;;12.11;66.67;98864.38;5073527;28;20025;-74
2021/11/22 09:46:30;;;;;;;0.17;0.17;;;;;;;12.16;66.61;98866.19;5073473;28;20032;-74
2021/11/22 09:48:55;;;;;;;0.10;0.10;;;;;;;12.26;65.82;98863.34;5055585;28;20094;-74
2021/11/22 09:51:21;;;;;;;0.17;0.17;;;;;;;12.26;66.27;98847.25;5055624;28;20025;-74
2021/11/22 09:53:47;;;;;;;0.47;0.47;;;;;;;12.47;66.43;98868.38;5055583;28;20063;-73
2021/11/22 09:56:12;;;;;;;0.30;0.30;;;;;;;12.53;65.55;98850.34;5055361;28;20380;-74
2021/11/22 09:58:38;;;;;;;0.10;0.10;;;;;;;12.56;65.61;98850.53;5073435;28;20386;-74
2021/11/22 10:01:10;;;;;;;0.75;0.57;;;;;;;12.68;64.94;98847.38;5073607;28;20024;-74
2021/11/22 10:03:36;;;;;;;0.10;0.10;;;;;;;12.72;65.15;98834.97;5073485;28;20087;-74
2021/11/22 10:06:03;;;;;;;0.00;0.00;;;;;;;12.65;64.87;98816.56;5073144;28;20048;-74
2021/11/22 10:08:37;;;;;;;0.08;0.08;;;;;;;12.88;64.25;98827.44;5073432;28;20474;-74
2021/11/22 10:11:02;;;;;;;0.22;0.22;;;;;;;12.90;63.74;98827.16;5072989;28;20058;-74
2021/11/22 10:13:31;;;;;;;0.20;0.20;;;;;;;12.90;63.60;98822.59;5055247;28;20024;-73
2021/11/22 10:16:15;;;;;;;0.45;0.45;;;;;;;12.88;64.68;98805.19;5072928;28;20035;-74
2021/11/22 10:18:49;;;;;;;0.40;0.40;;;;;;;12.91;64.59;98800.00;5072915;28;20036;-73
2021/11/22 10:21:23;;;;;;;0.20;0.20;;;;;;;12.98;64.23;98805.78;5072607;28;20052;-73
2021/11/22 10:23:51;;;;;;;0.38;0.38;;;;;;;13.12;64.13;98813.03;5055144;28;20033;-74
2021/11/22 10:26:17;;;;;;;1.25;1.25;;;;;;;13.09;63.93;98803.69;5072939;28;20048;-74
2021/11/22 10:28:45;;;;;;;0.30;0.30;;;;;;;13.24;64.05;98799.94;5072820;28;20047;-74
2021/11/22 10:31:24;;;;;;;0.10;0.10;;;;;;;13.30;64.16;98792.53;5072645;28;20107;-73
2021/11/22 10:33:50;;;;;;;0.63;0.63;;;;;;;13.11;64.12;98758.56;5054894;28;20114;-75
2021/11/22 10:36:19;;;;;;;2.38;2.17;;;;;;;13.35;64.26;98780.91;5072410;28;20473;-73
2021/11/22 10:38:57;;;;;;;0.20;0.20;;;;;;;13.48;64.00;98798.94;5072833;28;20032;-73
2021/11/22 10:41:29;;;;;;;0.10;0.10;;;;;;;13.51;64.15;98794.84;5072977;28;20112;-75
2021/11/22 10:44:01;;;;;;;0.05;0.05;;;;;;;13.58;63.84;98797.91;5072425;28;20040;-75
2021/11/22 10:46:26;;;;;;;0.65;0.65;;;;;;;13.68;63.80;98794.22;5072318;28;20040;-73
2021/11/22 10:48:53;;;;;;;0.20;0.20;;;;;;;13.75;63.60;98799.97;5072369;28;20086;-74
2021/11/22 10:51:26;;;;;;;0.40;0.40;;;;;;;13.78;63.19;98791.31;5053951;28;20067;-74
2021/11/22 10:54:03;;;;;;;0.38;0.38;;;;;;;13.84;63.39;98787.41;5072182;28;20029;-76
2021/11/22 10:56:36;;;;;;;0.17;0.17;;;;;;;13.84;63.22;98776.66;5071880;28;20040;-74
2021/11/22 10:59:09;;;;;;;0.73;0.73;;;;;;;13.91;62.98;98768.16;5072272;28;20051;-74
2021/11/22 11:01:41;;;;;;;0.70;0.70;;;;;;;13.90;62.93;98756.63;5054407;28;20028;-74
2021/11/22 11:04:08;;;;;;;0.73;0.55;;;;;;;14.04;62.88;98766.53;5071961;28;20048;-74
2021/11/22 11:07:01;;;;;;;1.65;1.48;;;;;;;14.07;62.37;98763.22;5071900;28;20491;-74
2021/11/22 11:09:33;;;;;;;0.10;0.10;;;;;;;14.09;62.68;98764.50;5072468;28;20038;-74
2021/11/22 11:12:31;;;;;;;0.22;0.22;;;;;;;14.06;62.84;98745.47;5071904;28;20020;-74
2021/11/22 11:14:58;;;;;;;2.03;1.98;;;;;;;14.18;62.30;98750.31;5067707;28;20416;-73
2021/11/22 11:17:33;;;;;;;1.60;1.50;;;;;;;14.23;62.37;98758.25;5053897;28;20078;-73
2021/11/22 11:20:16;;;;;;;0.28;0.28;;;;;;;14.22;62.30;98749.41;5071462;28;20507;-73
2021/11/22 11:22:42;;;;;;;1.02;1.00;;;;;;;14.22;62.21;98737.81;5053523;28;20025;-72
2021/11/22 11:25:09;;;;;;;0.50;0.50;;;;;;;14.28;62.21;98743.88;5071427;28;20039;-73
2021/11/22 11:27:40;;;;;;;0.28;0.28;;;;;;;14.34;62.71;98748.03;5071765;28;20036;-74
2021/11/22 11:30:10;;;;;;;3.63;1.27;;;;;;;14.31;62.68;98729.81;5071158;28;20039;-74
2021/11/22 11:32:36;;;;;;;2.75;1.48;;;;;;;14.36;62.48;98735.06;5071925;28;20037;-74
2021/11/22 11:35:05;;;;;;;0.40;0.40;;;;;;;14.43;62.05;98740.81;5070068;28;20101;-74
2021/11/22 11:37:48;;;;;;;0.10;0.10;;;;;;;14.48;62.04;98735.28;5071503;28;20028;-74
2021/11/22 11:40:19;;;;;;;1.02;1.02;;;;;;;14.51;62.08;98737.38;5071385;28;20475;-73
2021/11/22 11:43:06;;;;;;;0.50;0.50;;;;;;;14.55;62.33;98743.72;5053359;28;20056;-74